sensor_id;sensor_type;location;lat;lon;timestamp;pressure;altitude;pressure_sealevel;temperature;humidity
5691;BME280;2870;42.680;23.364;2022-09-01T00:00:46;94979.97;;;18.90;95.80
5691;BME280;2870;42.680;23.364;2022-09-01T00:03:15;94980.59;;;18.88;96.37
5691;BME280;2870;42.680;23.364;2022-09-01T00:05:43;94983.03;;;18.94;95.85
5691;BME280;2870;42.680;23.364;2022-09-01T00:08:12;94975.06;;;18.78;96.22
5691;BME280;2870;42.680;23.364;2022-09-01T00:10:38;94979.75;;;18.74;97.23
5691;BME280;2870;42.680;23.364;2022-09-01T00:13:06;94969.13;;;18.74;97.50
5691;BME280;2870;42.680;23.364;2022-09-01T00:15:34;94966.38;;;18.76;97.34
5691;BME280;2870;42.680;23.364;2022-09-01T00:18:01;94973.03;;;18.93;96.75
5691;BME280;2870;42.680;23.364;2022-09-01T00:20:28;94969.44;;;19.04;95.70
5691;BME280;2870;42.680;23.364;2022-09-01T00:22:55;94970.88;;;18.68;96.94
5691;BME280;2870;42.680;23.364;2022-09-01T00:25:26;94965.16;;;18.56;98.68
5691;BME280;2870;42.680;23.364;2022-09-01T00:27:54;94964.91;;;18.64;97.72
5691;BME280;2870;42.680;23.364;2022-09-01T00:30:24;94965.66;;;18.52;98.87
5691;BME280;2870;42.680;23.364;2022-09-01T00:32:51;94964.66;;;18.24;99.80
5691;BME280;2870;42.680;23.364;2022-09-01T00:35:18;94967.75;;;18.28;99.77
5691;BME280;2870;42.680;23.364;2022-09-01T00:37:45;94971.69;;;18.59;98.49
5691;BME280;2870;42.680;23.364;2022-09-01T00:40:13;94977.63;;;18.51;98.33
5691;BME280;2870;42.680;23.364;2022-09-01T00:42:42;94976.16;;;18.38;99.25
5691;BME280;2870;42.680;23.364;2022-09-01T00:45:10;94984.41;;;18.22;99.70
5691;BME280;2870;42.680;23.364;2022-09-01T00:47:37;94979.94;;;18.19;100.00
5691;BME280;2870;42.680;23.364;2022-09-01T00:50:06;94992.94;;;18.22;100.00
5691;BME280;2870;42.680;23.364;2022-09-01T00:52:35;94986.38;;;18.20;100.00
5691;BME280;2870;42.680;23.364;2022-09-01T00:55:07;94983.66;;;18.22;100.00
5691;BME280;2870;42.680;23.364;2022-09-01T00:57:35;94997.34;;;18.14;100.00
5691;BME280;2870;42.680;23.364;2022-09-01T01:00:09;94994.66;;;18.16;100.00
5691;BME280;2870;42.680;23.364;2022-09-01T01:02:36;94995.38;;;18.16;99.83
5691;BME280;2870;42.680;23.364;2022-09-01T01:05:05;94987.34;;;18.13;100.00
5691;BME280;2870;42.680;23.364;2022-09-01T01:07:33;94988.69;;;18.00;100.00
5691;BME280;2870;42.680;23.364;2022-09-01T01:10:05;94994.75;;;18.18;100.00
5691;BME280;2870;42.680;23.364;2022-09-01T01:12:32;94993.56;;;18.21;99.53
5691;BME280;2870;42.680;23.364;2022-09-01T01:15:05;94991.78;;;18.04;100.00
5691;BME280;2870;42.680;23.364;2022-09-01T01:17:33;94993.13;;;18.03;100.00
5691;BME280;2870;42.680;23.364;2022-09-01T01:20:00;94993.09;;;17.91;100.00
5691;BME280;2870;42.680;23.364;2022-09-01T01:22:52;94997.66;;;17.85;100.00
5691;BME280;2870;42.680;23.364;2022-09-01T01:25:31;94991.25;;;17.84;100.00
5691;BME280;2870;42.680;23.364;2022-09-01T01:28:08;94996.06;;;17.82;100.00
5691;BME280;2870;42.680;23.364;2022-09-01T01:30:36;94994.78;;;17.73;100.00
5691;BME280;2870;42.680;23.364;2022-09-01T01:33:05;94992.84;;;17.76;100.00
5691;BME280;2870;42.680;23.364;2022-09-01T01:35:32;95003.06;;;17.81;100.00
5691;BME280;2870;42.680;23.364;2022-09-01T01:38:00;95002.22;;;17.90;100.00
5691;BME280;2870;42.680;23.364;2022-09-01T01:40:28;94992.94;;;17.78;100.00
5691;BME280;2870;42.680;23.364;2022-09-01T01:42:56;95000.16;;;17.69;100.00
5691;BME280;2870;42.680;23.364;2022-09-01T01:45:25;94995.84;;;17.68;100.00
5691;BME280;2870;42.680;23.364;2022-09-01T01:47:53;94990.34;;;17.48;100.00
5691;BME280;2870;42.680;23.364;2022-09-01T01:50:23;95007.88;;;17.57;100.00
5691;BME280;2870;42.680;23.364;2022-09-01T01:52:50;95007.75;;;17.76;100.00
5691;BME280;2870;42.680;23.364;2022-09-01T01:55:19;95009.75;;;17.85;100.00
5691;BME280;2870;42.680;23.364;2022-09-01T01:57:50;95022.56;;;17.86;100.00
5691;BME280;2870;42.680;23.364;2022-09-01T02:00:21;95013.28;;;17.74;100.00
5691;BME280;2870;42.680;23.364;2022-09-01T02:02:49;95024.78;;;17.76;100.00
5691;BME280;2870;42.680;23.364;2022-09-01T02:05:22;95012.13;;;17.67;100.00
5691;BME280;2870;42.680;23.364;2022-09-01T02:07:53;95013.56;;;17.57;100.00
5691;BME280;2870;42.680;23.364;2022-09-01T02:10:25;95015.31;;;17.62;100.00
5691;BME280;2870;42.680;23.364;2022-09-01T02:12:57;95022.97;;;17.59;100.00
5691;BME280;2870;42.680;23.364;2022-09-01T02:15:28;95029.38;;;17.60;100.00
5691;BME280;2870;42.680;23.364;2022-09-01T02:17:56;95025.25;;;17.72;100.00
5691;BME280;2870;42.680;23.364;2022-09-01T02:20:24;95029.75;;;17.66;100.00
5691;BME280;2870;42.680;23.364;2022-09-01T02:22:54;95027.53;;;17.64;100.00
5691;BME280;2870;42.680;23.364;2022-09-01T02:25:21;95018.25;;;17.64;100.00
5691;BME280;2870;42.680;23.364;2022-09-01T02:27:48;95024.09;;;17.66;100.00
5691;BME280;2870;42.680;23.364;2022-09-01T02:30:19;95018.97;;;17.53;99.48
5691;BME280;2870;42.680;23.364;2022-09-01T02:32:49;95022.06;;;17.57;99.40
5691;BME280;2870;42.680;23.364;2022-09-01T02:35:16;95025.19;;;17.61;99.28
5691;BME280;2870;42.680;23.364;2022-09-01T02:37:43;95017.31;;;17.71;98.17
5691;BME280;2870;42.680;23.364;2022-09-01T02:40:10;95014.03;;;17.74;98.50
5691;BME280;2870;42.680;23.364;2022-09-01T02:42:38;95016.38;;;17.78;97.99
5691;BME280;2870;42.680;23.364;2022-09-01T02:45:08;95003.84;;;17.60;98.97
5691;BME280;2870;42.680;23.364;2022-09-01T02:47:42;95010.19;;;17.70;98.46
5691;BME280;2870;42.680;23.364;2022-09-01T02:50:12;94999.31;;;17.66;99.16
5691;BME280;2870;42.680;23.364;2022-09-01T02:52:43;95002.94;;;17.57;98.61
5691;BME280;2870;42.680;23.364;2022-09-01T02:55:13;95008.56;;;17.67;98.62
5691;BME280;2870;42.680;23.364;2022-09-01T02:57:46;95008.81;;;17.71;97.84
5691;BME280;2870;42.680;23.364;2022-09-01T03:00:14;95006.44;;;17.67;97.77
5691;BME280;2870;42.680;23.364;2022-09-01T03:02:51;95002.13;;;17.66;97.95
5691;BME280;2870;42.680;23.364;2022-09-01T03:05:21;94998.28;;;17.62;98.07
5691;BME280;2870;42.680;23.364;2022-09-01T03:07:53;94998.28;;;17.62;97.35
5691;BME280;2870;42.680;23.364;2022-09-01T03:10:23;95002.13;;;17.66;96.40
5691;BME280;2870;42.680;23.364;2022-09-01T03:12:52;95004.97;;;17.66;96.35
5691;BME280;2870;42.680;23.364;2022-09-01T03:15:20;95003.28;;;17.73;95.30
5691;BME280;2870;42.680;23.364;2022-09-01T03:17:47;95004.78;;;17.74;96.47
5691;BME280;2870;42.680;23.364;2022-09-01T03:20:16;94998.81;;;17.70;95.73
5691;BME280;2870;42.680;23.364;2022-09-01T03:22:44;95007.03;;;17.76;95.80
5691;BME280;2870;42.680;23.364;2022-09-01T03:25:12;95003.72;;;17.69;95.17
5691;BME280;2870;42.680;23.364;2022-09-01T03:27:38;95002.75;;;17.65;95.39
5691;BME280;2870;42.680;23.364;2022-09-01T03:30:06;95005.19;;;17.59;95.71
5691;BME280;2870;42.680;23.364;2022-09-01T03:32:33;95007.63;;;17.53;95.79
5691;BME280;2870;42.680;23.364;2022-09-01T03:35:00;94997.13;;;17.43;96.06
5691;BME280;2870;42.680;23.364;2022-09-01T03:37:28;95005.13;;;17.47;96.92
5691;BME280;2870;42.680;23.364;2022-09-01T03:39:55;95010.78;;;17.47;96.53
5691;BME280;2870;42.680;23.364;2022-09-01T03:42:23;95009.22;;;17.22;97.68
5691;BME280;2870;42.680;23.364;2022-09-01T03:44:54;95005.13;;;17.47;96.99
5691;BME280;2870;42.680;23.364;2022-09-01T03:47:21;95017.47;;;17.52;96.67
5691;BME280;2870;42.680;23.364;2022-09-01T03:49:49;95011.84;;;17.30;97.37
5691;BME280;2870;42.680;23.364;2022-09-01T03:52:16;95013.28;;;17.19;98.62
5691;BME280;2870;42.680;23.364;2022-09-01T03:54:44;95009.69;;;17.19;100.00
5691;BME280;2870;42.680;23.364;2022-09-01T03:57:15;95011.75;;;17.18;100.00
5691;BME280;2870;42.680;23.364;2022-09-01T03:59:42;95023.31;;;17.32;99.88
5691;BME280;2870;42.680;23.364;2022-09-01T04:02:09;95003.00;;;17.14;100.00
5691;BME280;2870;42.680;23.364;2022-09-01T04:04:37;95007.94;;;16.92;100.00
5691;BME280;2870;42.680;23.364;2022-09-01T04:07:04;95014.47;;;17.16;100.00
5691;BME280;2870;42.680;23.364;2022-09-01T04:09:32;95014.94;;;17.34;100.00
5691;BME280;2870;42.680;23.364;2022-09-01T04:12:04;95019.75;;;17.10;100.00
5691;BME280;2870;42.680;23.364;2022-09-01T04:14:33;95015.38;;;17.19;100.00
5691;BME280;2870;42.680;23.364;2022-09-01T04:17:00;95014.75;;;17.20;100.00
5691;BME280;2870;42.680;23.364;2022-09-01T04:19:44;95016.41;;;17.35;100.00
5691;BME280;2870;42.680;23.364;2022-09-01T04:22:11;95014.13;;;17.43;100.00
5691;BME280;2870;42.680;23.364;2022-09-01T04:24:38;95012.03;;;17.22;100.00
5691;BME280;2870;42.680;23.364;2022-09-01T04:27:08;95013.22;;;17.08;100.00
5691;BME280;2870;42.680;23.364;2022-09-01T04:29:35;95017.25;;;17.05;100.00
5691;BME280;2870;42.680;23.364;2022-09-01T04:32:04;95017.53;;;17.09;100.00
5691;BME280;2870;42.680;23.364;2022-09-01T04:34:33;95004.94;;;17.12;100.00
5691;BME280;2870;42.680;23.364;2022-09-01T04:37:07;95015.75;;;17.04;100.00
5691;BME280;2870;42.680;23.364;2022-09-01T04:39:34;95011.56;;;17.05;100.00
5691;BME280;2870;42.680;23.364;2022-09-01T04:42:03;95015.03;;;17.03;100.00
5691;BME280;2870;42.680;23.364;2022-09-01T04:44:35;95022.78;;;17.03;100.00
5691;BME280;2870;42.680;23.364;2022-09-01T04:47:02;95017.53;;;17.09;100.00
5691;BME280;2870;42.680;23.364;2022-09-01T04:49:35;95014.59;;;17.18;100.00
5691;BME280;2870;42.680;23.364;2022-09-01T04:52:02;95005.75;;;16.81;100.00
5691;BME280;2870;42.680;23.364;2022-09-01T04:54:30;95021.44;;;17.04;100.00
5691;BME280;2870;42.680;23.364;2022-09-01T04:56:57;95012.25;;;17.15;100.00
5691;BME280;2870;42.680;23.364;2022-09-01T04:59:24;95014.34;;;17.36;100.00
5691;BME280;2870;42.680;23.364;2022-09-01T05:01:55;95016.69;;;17.39;100.00
5691;BME280;2870;42.680;23.364;2022-09-01T05:04:26;95010.75;;;17.35;100.00
5691;BME280;2870;42.680;23.364;2022-09-01T05:06:55;95015.44;;;17.31;100.00
5691;BME280;2870;42.680;23.364;2022-09-01T05:09:24;95015.13;;;17.48;100.00
5691;BME280;2870;42.680;23.364;2022-09-01T05:11:51;95007.09;;;17.44;100.00
5691;BME280;2870;42.680;23.364;2022-09-01T05:14:18;95013.91;;;17.72;100.00
5691;BME280;2870;42.680;23.364;2022-09-01T05:16:46;95015.59;;;17.66;100.00
5691;BME280;2870;42.680;23.364;2022-09-01T05:19:15;95017.28;;;17.59;100.00
5691;BME280;2870;42.680;23.364;2022-09-01T05:21:43;95012.88;;;17.68;100.00
5691;BME280;2870;42.680;23.364;2022-09-01T05:24:11;95007.03;;;17.54;100.00
5691;BME280;2870;42.680;23.364;2022-09-01T05:26:40;95007.50;;;17.29;100.00
5691;BME280;2870;42.680;23.364;2022-09-01T05:29:07;95013.34;;;17.10;100.00
5691;BME280;2870;42.680;23.364;2022-09-01T05:31:38;95014.06;;;17.32;100.00
5691;BME280;2870;42.680;23.364;2022-09-01T05:34:06;95009.25;;;17.56;100.00
5691;BME280;2870;42.680;23.364;2022-09-01T05:36:36;94989.63;;;17.81;100.00
5691;BME280;2870;42.680;23.364;2022-09-01T05:39:05;95005.63;;;18.10;100.00
5691;BME280;2870;42.680;23.364;2022-09-01T05:41:36;95005.50;;;18.31;98.99
5691;BME280;2870;42.680;23.364;2022-09-01T05:44:04;94997.50;;;18.39;97.51
5691;BME280;2870;42.680;23.364;2022-09-01T05:46:33;94998.47;;;18.32;97.17
5691;BME280;2870;42.680;23.364;2022-09-01T05:49:01;95013.50;;;17.99;99.79
5691;BME280;2870;42.680;23.364;2022-09-01T05:51:29;94973.13;;;17.89;98.98
5691;BME280;2870;42.680;23.364;2022-09-01T05:54:00;95010.34;;;18.40;98.21
5691;BME280;2870;42.680;23.364;2022-09-01T05:56:27;95017.84;;;18.24;99.32
5691;BME280;2870;42.680;23.364;2022-09-01T05:58:55;95017.00;;;18.33;97.50
5691;BME280;2870;42.680;23.364;2022-09-01T06:01:26;95016.19;;;17.97;99.74
5691;BME280;2870;42.680;23.364;2022-09-01T06:03:56;95011.47;;;17.57;100.00
5691;BME280;2870;42.680;23.364;2022-09-01T06:06:25;95015.88;;;17.27;100.00
5691;BME280;2870;42.680;23.364;2022-09-01T06:08:53;95005.06;;;17.90;100.00
5691;BME280;2870;42.680;23.364;2022-09-01T06:11:25;95004.31;;;17.78;100.00
5691;BME280;2870;42.680;23.364;2022-09-01T06:13:57;95001.09;;;17.83;100.00
5691;BME280;2870;42.680;23.364;2022-09-01T06:16:26;94998.22;;;18.05;100.00
5691;BME280;2870;42.680;23.364;2022-09-01T06:18:54;95003.50;;;17.98;100.00
5691;BME280;2870;42.680;23.364;2022-09-01T06:21:25;95001.47;;;17.78;100.00
5691;BME280;2870;42.680;23.364;2022-09-01T06:23:54;95009.56;;;18.05;100.00
5691;BME280;2870;42.680;23.364;2022-09-01T06:26:25;95003.16;;;18.16;98.93
5691;BME280;2870;42.680;23.364;2022-09-01T06:28:53;94986.19;;;17.83;99.52
5691;BME280;2870;42.680;23.364;2022-09-01T06:31:21;95011.25;;;17.98;100.00
5691;BME280;2870;42.680;23.364;2022-09-01T06:33:50;95010.59;;;18.21;99.40
5691;BME280;2870;42.680;23.364;2022-09-01T06:36:19;95003.94;;;18.40;98.38
5691;BME280;2870;42.680;23.364;2022-09-01T06:38:48;94999.25;;;18.91;97.25
5691;BME280;2870;42.680;23.364;2022-09-01T06:41:16;94993.78;;;19.07;93.44
5691;BME280;2870;42.680;23.364;2022-09-01T06:43:45;94994.66;;;18.98;92.64
5691;BME280;2870;42.680;23.364;2022-09-01T06:46:12;94988.50;;;18.90;93.80
5691;BME280;2870;42.680;23.364;2022-09-01T06:48:39;94991.28;;;19.25;93.16
5691;BME280;2870;42.680;23.364;2022-09-01T06:51:11;94995.66;;;19.40;91.38
5691;BME280;2870;42.680;23.364;2022-09-01T06:53:38;94998.09;;;19.20;92.33
5691;BME280;2870;42.680;23.364;2022-09-01T06:56:06;95001.09;;;19.47;89.66
5691;BME280;2870;42.680;23.364;2022-09-01T06:58:37;94990.31;;;19.57;90.67
5691;BME280;2870;42.680;23.364;2022-09-01T07:01:09;94991.06;;;19.83;88.82
5691;BME280;2870;42.680;23.364;2022-09-01T07:03:40;94988.91;;;19.70;89.38
5691;BME280;2870;42.680;23.364;2022-09-01T07:06:08;94995.00;;;19.65;90.52
5691;BME280;2870;42.680;23.364;2022-09-01T07:08:36;94996.53;;;19.79;89.40
5691;BME280;2870;42.680;23.364;2022-09-01T07:11:06;95002.97;;;20.05;88.51
5691;BME280;2870;42.680;23.364;2022-09-01T07:13:34;94994.91;;;20.41;87.27
5691;BME280;2870;42.680;23.364;2022-09-01T07:16:02;94983.94;;;20.35;85.26
5691;BME280;2870;42.680;23.364;2022-09-01T07:18:32;94993.53;;;20.28;85.62
5691;BME280;2870;42.680;23.364;2022-09-01T07:20:59;94988.25;;;20.62;84.22
5691;BME280;2870;42.680;23.364;2022-09-01T07:23:31;94992.34;;;20.86;83.23
5691;BME280;2870;42.680;23.364;2022-09-01T07:25:58;94991.44;;;20.82;82.99
5691;BME280;2870;42.680;23.364;2022-09-01T07:28:25;94987.13;;;21.52;80.08
5691;BME280;2870;42.680;23.364;2022-09-01T07:30:54;94994.69;;;21.31;79.44
5691;BME280;2870;42.680;23.364;2022-09-01T07:33:22;94988.13;;;21.15;81.26
5691;BME280;2870;42.680;23.364;2022-09-01T07:35:50;94996.69;;;21.01;80.46
5691;BME280;2870;42.680;23.364;2022-09-01T07:38:20;94990.94;;;21.56;78.59
5691;BME280;2870;42.680;23.364;2022-09-01T07:40:47;94991.91;;;21.77;77.72
5691;BME280;2870;42.680;23.364;2022-09-01T07:43:16;94994.84;;;23.01;74.96
5691;BME280;2870;42.680;23.364;2022-09-01T07:45:49;94985.25;;;23.77;69.63
5691;BME280;2870;42.680;23.364;2022-09-01T07:48:18;94991.13;;;24.17;67.41
5691;BME280;2870;42.680;23.364;2022-09-01T07:50:47;94994.28;;;24.25;67.36
5691;BME280;2870;42.680;23.364;2022-09-01T07:53:17;94984.88;;;24.05;67.21
5691;BME280;2870;42.680;23.364;2022-09-01T07:55:47;94991.06;;;24.91;66.60
5691;BME280;2870;42.680;23.364;2022-09-01T07:58:15;94989.19;;;25.81;61.96
5691;BME280;2870;42.680;23.364;2022-09-01T08:00:44;94994.94;;;26.03;61.57
5691;BME280;2870;42.680;23.364;2022-09-01T08:03:12;94985.38;;;26.18;60.29
5691;BME280;2870;42.680;23.364;2022-09-01T08:05:38;94990.31;;;26.85;58.58
5691;BME280;2870;42.680;23.364;2022-09-01T08:08:06;94997.44;;;26.36;58.83
5691;BME280;2870;42.680;23.364;2022-09-01T08:10:37;94995.97;;;26.35;58.73
5691;BME280;2870;42.680;23.364;2022-09-01T08:13:04;94998.97;;;25.94;59.65
5691;BME280;2870;42.680;23.364;2022-09-01T08:15:31;94990.75;;;26.06;58.83
5691;BME280;2870;42.680;23.364;2022-09-01T08:17:58;94989.66;;;26.63;57.30
5691;BME280;2870;42.680;23.364;2022-09-01T08:20:25;94988.16;;;26.38;57.79
5691;BME280;2870;42.680;23.364;2022-09-01T08:22:52;94986.44;;;26.77;57.16
5691;BME280;2870;42.680;23.364;2022-09-01T08:25:19;94984.44;;;27.31;56.29
5691;BME280;2870;42.680;23.364;2022-09-01T08:27:47;94992.19;;;27.01;56.43
5691;BME280;2870;42.680;23.364;2022-09-01T08:30:14;94989.19;;;26.97;55.90
5691;BME280;2870;42.680;23.364;2022-09-01T08:32:40;94980.31;;;27.66;54.58
5691;BME280;2870;42.680;23.364;2022-09-01T08:35:08;94981.84;;;26.91;54.57
5691;BME280;2870;42.680;23.364;2022-09-01T08:37:35;94976.25;;;27.50;55.64
5691;BME280;2870;42.680;23.364;2022-09-01T08:40:02;94982.91;;;27.56;53.82
5691;BME280;2870;42.680;23.364;2022-09-01T08:42:41;94979.19;;;28.08;53.77
5691;BME280;2870;42.680;23.364;2022-09-01T08:45:18;94975.19;;;28.21;52.65
5691;BME280;2870;42.680;23.364;2022-09-01T08:47:46;94979.41;;;28.16;51.71
5691;BME280;2870;42.680;23.364;2022-09-01T08:50:14;94973.13;;;27.95;51.69
5691;BME280;2870;42.680;23.364;2022-09-01T08:52:45;94974.19;;;28.38;51.60
5691;BME280;2870;42.680;23.364;2022-09-01T08:55:15;94969.66;;;28.31;50.90
5691;BME280;2870;42.680;23.364;2022-09-01T08:57:45;94954.59;;;28.67;50.33
5691;BME280;2870;42.680;23.364;2022-09-01T09:00:19;94956.09;;;29.40;49.57
5691;BME280;2870;42.680;23.364;2022-09-01T09:02:58;94953.19;;;29.78;48.32
5691;BME280;2870;42.680;23.364;2022-09-01T09:05:36;94947.13;;;29.62;45.92
5691;BME280;2870;42.680;23.364;2022-09-01T09:08:38;94945.22;;;29.00;46.28
5691;BME280;2870;42.680;23.364;2022-09-01T09:11:21;94938.91;;;29.48;45.54
5691;BME280;2870;42.680;23.364;2022-09-01T09:14:01;94943.88;;;29.44;46.29
5691;BME280;2870;42.680;23.364;2022-09-01T09:16:36;94942.66;;;29.55;47.53
5691;BME280;2870;42.680;23.364;2022-09-01T09:19:06;94936.44;;;29.71;48.12
5691;BME280;2870;42.680;23.364;2022-09-01T09:21:37;94943.50;;;30.52;45.12
5691;BME280;2870;42.680;23.364;2022-09-01T09:24:09;94935.91;;;30.79;44.65
5691;BME280;2870;42.680;23.364;2022-09-01T09:26:36;94931.00;;;29.91;44.11
5691;BME280;2870;42.680;23.364;2022-09-01T09:29:03;94931.41;;;30.16;44.71
5691;BME280;2870;42.680;23.364;2022-09-01T09:31:33;94930.84;;;30.80;44.00
5691;BME280;2870;42.680;23.364;2022-09-01T09:34:01;94927.16;;;30.71;44.24
5691;BME280;2870;42.680;23.364;2022-09-01T09:36:31;94926.69;;;30.93;42.60
5691;BME280;2870;42.680;23.364;2022-09-01T09:39:10;94919.69;;;30.07;43.72
5691;BME280;2870;42.680;23.364;2022-09-01T09:41:39;94914.94;;;29.42;44.42
5691;BME280;2870;42.680;23.364;2022-09-01T09:44:16;94921.16;;;30.10;44.09
5691;BME280;2870;42.680;23.364;2022-09-01T09:46:47;94906.13;;;30.18;43.83
5691;BME280;2870;42.680;23.364;2022-09-01T09:49:17;94916.69;;;30.48;43.59
5691;BME280;2870;42.680;23.364;2022-09-01T09:51:47;94917.63;;;31.23;41.81
5691;BME280;2870;42.680;23.364;2022-09-01T09:54:18;94915.88;;;31.62;41.29
5691;BME280;2870;42.680;23.364;2022-09-01T09:56:46;94910.19;;;31.08;42.00
5691;BME280;2870;42.680;23.364;2022-09-01T09:59:17;94912.09;;;30.83;42.85
5691;BME280;2870;42.680;23.364;2022-09-01T10:01:44;94905.41;;;31.31;40.34
5691;BME280;2870;42.680;23.364;2022-09-01T10:04:31;94910.69;;;30.86;41.03
5691;BME280;2870;42.680;23.364;2022-09-01T10:06:58;94909.34;;;29.12;42.21
5691;BME280;2870;42.680;23.364;2022-09-01T10:09:34;94906.97;;;28.66;41.98
5691;BME280;2870;42.680;23.364;2022-09-01T10:12:03;94908.69;;;28.79;42.79
5691;BME280;2870;42.680;23.364;2022-09-01T10:14:34;94897.41;;;29.31;43.07
5691;BME280;2870;42.680;23.364;2022-09-01T10:17:07;94889.97;;;30.03;41.79
5691;BME280;2870;42.680;23.364;2022-09-01T10:19:37;94877.66;;;30.02;40.81
5691;BME280;2870;42.680;23.364;2022-09-01T10:22:07;94891.84;;;29.84;41.63
5691;BME280;2870;42.680;23.364;2022-09-01T10:24:37;94879.03;;;29.97;41.02
5691;BME280;2870;42.680;23.364;2022-09-01T10:27:07;94882.94;;;29.70;42.22
5691;BME280;2870;42.680;23.364;2022-09-01T10:29:40;94884.59;;;29.00;42.20
5691;BME280;2870;42.680;23.364;2022-09-01T10:32:15;94883.53;;;28.49;43.15
5691;BME280;2870;42.680;23.364;2022-09-01T10:34:45;94880.75;;;27.89;46.53
5691;BME280;2870;42.680;23.364;2022-09-01T10:37:13;94878.06;;;27.39;46.22
5691;BME280;2870;42.680;23.364;2022-09-01T10:40:14;94885.47;;;27.18;46.74
5691;BME280;2870;42.680;23.364;2022-09-01T10:42:43;94872.13;;;27.61;46.24
5691;BME280;2870;42.680;23.364;2022-09-01T10:45:19;94873.94;;;27.46;46.14
5691;BME280;2870;42.680;23.364;2022-09-01T10:47:54;94871.34;;;27.29;46.67
5691;BME280;2870;42.680;23.364;2022-09-01T10:50:27;94875.09;;;26.81;47.23
5691;BME280;2870;42.680;23.364;2022-09-01T10:53:05;94871.59;;;26.85;47.25
5691;BME280;2870;42.680;23.364;2022-09-01T10:55:43;94871.03;;;26.90;47.96
5691;BME280;2870;42.680;23.364;2022-09-01T11:01:09;94866.78;;;26.93;48.95
5691;BME280;2870;42.680;23.364;2022-09-01T11:03:52;94857.69;;;26.77;49.53
5691;BME280;2870;42.680;23.364;2022-09-01T11:09:33;94856.25;;;27.60;48.51
5691;BME280;2870;42.680;23.364;2022-09-01T11:15:01;94847.56;;;27.58;48.64
5691;BME280;2870;42.680;23.364;2022-09-01T11:17:30;94837.06;;;27.41;48.82
5691;BME280;2870;42.680;23.364;2022-09-01T11:20:02;94845.06;;;26.88;49.47
5691;BME280;2870;42.680;23.364;2022-09-01T11:22:35;94848.78;;;27.19;50.29
5691;BME280;2870;42.680;23.364;2022-09-01T11:28:37;94834.41;;;27.21;48.19
5691;BME280;2870;42.680;23.364;2022-09-01T11:31:37;94831.50;;;27.19;48.27
5691;BME280;2870;42.680;23.364;2022-09-01T11:34:14;94832.38;;;27.26;48.15
5691;BME280;2870;42.680;23.364;2022-09-01T11:36:53;94824.44;;;27.24;48.34
5691;BME280;2870;42.680;23.364;2022-09-01T11:39:30;94820.84;;;27.56;46.32
5691;BME280;2870;42.680;23.364;2022-09-01T11:42:00;94814.78;;;28.04;46.09
5691;BME280;2870;42.680;23.364;2022-09-01T11:44:33;94812.28;;;28.22;44.58
5691;BME280;2870;42.680;23.364;2022-09-01T11:47:05;94798.53;;;28.55;45.85
5691;BME280;2870;42.680;23.364;2022-09-01T11:49:34;94809.38;;;28.22;45.13
5691;BME280;2870;42.680;23.364;2022-09-01T11:52:03;94799.31;;;27.89;46.21
5691;BME280;2870;42.680;23.364;2022-09-01T11:54:37;94794.47;;;27.97;46.55
5691;BME280;2870;42.680;23.364;2022-09-01T11:57:20;94796.06;;;27.72;47.76
5691;BME280;2870;42.680;23.364;2022-09-01T11:59:49;94786.09;;;28.12;48.53
5691;BME280;2870;42.680;23.364;2022-09-01T12:02:18;94801.97;;;28.13;48.36
5691;BME280;2870;42.680;23.364;2022-09-01T12:04:47;94796.31;;;28.17;48.35
5691;BME280;2870;42.680;23.364;2022-09-01T12:07:25;94788.03;;;28.01;48.47
5691;BME280;2870;42.680;23.364;2022-09-01T12:09:53;94784.94;;;28.61;49.43
5691;BME280;2870;42.680;23.364;2022-09-01T12:12:38;94781.41;;;28.65;47.92
5691;BME280;2870;42.680;23.364;2022-09-01T12:15:09;94785.53;;;27.85;50.01
5691;BME280;2870;42.680;23.364;2022-09-01T12:17:37;94774.09;;;27.57;50.87
5691;BME280;2870;42.680;23.364;2022-09-01T12:20:24;94777.63;;;28.20;50.09
5691;BME280;2870;42.680;23.364;2022-09-01T12:22:53;94757.00;;;28.34;49.30
5691;BME280;2870;42.680;23.364;2022-09-01T12:25:22;94774.06;;;27.87;50.17
5691;BME280;2870;42.680;23.364;2022-09-01T12:27:50;94781.47;;;27.66;50.69
5691;BME280;2870;42.680;23.364;2022-09-01T12:30:19;94766.72;;;28.16;49.65
5691;BME280;2870;42.680;23.364;2022-09-01T12:32:46;94773.88;;;28.13;50.07
5691;BME280;2870;42.680;23.364;2022-09-01T12:35:16;94774.38;;;27.69;50.11
5691;BME280;2870;42.680;23.364;2022-09-01T12:37:44;94775.00;;;27.66;50.71
5691;BME280;2870;42.680;23.364;2022-09-01T12:40:22;94764.25;;;27.68;51.11
5691;BME280;2870;42.680;23.364;2022-09-01T12:42:51;94768.19;;;27.83;50.88
5691;BME280;2870;42.680;23.364;2022-09-01T12:45:37;94765.41;;;27.87;50.93
5691;BME280;2870;42.680;23.364;2022-09-01T12:48:04;94746.19;;;27.66;50.85
5691;BME280;2870;42.680;23.364;2022-09-01T12:50:41;94761.78;;;28.21;49.63
5691;BME280;2870;42.680;23.364;2022-09-01T12:53:15;94765.63;;;27.97;50.20
5691;BME280;2870;42.680;23.364;2022-09-01T12:55:55;94766.03;;;27.52;50.31
5691;BME280;2870;42.680;23.364;2022-09-01T12:58:26;94762.00;;;27.65;50.82
5691;BME280;2870;42.680;23.364;2022-09-01T13:00:58;94763.88;;;27.52;51.08
5691;BME280;2870;42.680;23.364;2022-09-01T13:03:27;94759.16;;;27.67;50.86
5691;BME280;2870;42.680;23.364;2022-09-01T13:05:54;94760.31;;;27.54;50.79
5691;BME280;2870;42.680;23.364;2022-09-01T13:08:24;94762.06;;;27.35;50.73
5691;BME280;2870;42.680;23.364;2022-09-01T13:10:54;94763.19;;;27.54;51.24
5691;BME280;2870;42.680;23.364;2022-09-01T13:13:24;94757.56;;;27.60;50.96
5691;BME280;2870;42.680;23.364;2022-09-01T13:15:53;94752.28;;;27.80;50.81
5691;BME280;2870;42.680;23.364;2022-09-01T13:18:23;94748.28;;;27.95;50.65
5691;BME280;2870;42.680;23.364;2022-09-01T13:20:51;94743.81;;;27.88;49.79
5691;BME280;2870;42.680;23.364;2022-09-01T13:23:20;94744.19;;;28.07;49.88
5691;BME280;2870;42.680;23.364;2022-09-01T13:25:47;94730.63;;;28.13;49.53
5691;BME280;2870;42.680;23.364;2022-09-01T13:28:16;94740.22;;;27.90;50.58
5691;BME280;2870;42.680;23.364;2022-09-01T13:30:44;94737.75;;;28.08;51.09
5691;BME280;2870;42.680;23.364;2022-09-01T13:33:13;94745.63;;;28.08;50.17
5691;BME280;2870;42.680;23.364;2022-09-01T13:35:41;94738.97;;;28.33;51.21